Time;durP1;ratioP1;P1;durP2;ratioP2;P2;SDS_P1;SDS_P2;PMS_P1;PMS_P2;Temp;Humidity;BMP_temperature;BMP_pressure;BME280_temperature;BME280_humidity;BME280_pressure;Samples;Min_cycle;Max_cycle;Signal;HPM_P1;HPM_P2
2021/08/02 00:01:09;;;;;;;6.43;4.53;;;;;;;17.66;100.00;97323.34;5052485;28;20451;-76
2021/08/02 00:03:50;;;;;;;4.80;3.78;;;;;;;17.77;100.00;97335.47;5053765;28;20033;-79
2021/08/02 00:06:24;;;;;;;8.18;4.45;;;;;;;17.98;100.00;97349.03;5053663;28;20031;-78
2021/08/02 00:09:48;;;;;;;9.57;4.65;;;;;;;18.01;100.00;97351.88;5051845;28;20584;-77
2021/08/02 00:12:26;;;;;;;7.38;5.88;;;;;;;17.74;100.00;97350.00;5031049;28;20445;-77
2021/08/02 00:14:53;;;;;;;8.45;4.50;;;;;;;17.61;100.00;97360.34;5053448;28;20032;-79
2021/08/02 00:17:20;;;;;;;7.45;5.05;;;;;;;17.71;100.00;97360.97;5052200;28;20033;-78
2021/08/02 00:19:46;;;;;;;5.55;4.05;;;;;;;17.45;100.00;97351.19;5053290;28;20500;-76
2021/08/02 00:22:11;;;;;;;4.90;4.40;;;;;;;17.47;100.00;97370.22;5053287;28;20028;-78
2021/08/02 00:24:37;;;;;;;7.88;4.50;;;;;;;17.75;100.00;97359.94;5053481;28;20021;-77
2021/08/02 00:27:03;;;;;;;5.38;4.72;;;;;;;17.73;100.00;97384.34;5053412;28;20048;-76
2021/08/02 00:29:30;;;;;;;8.05;4.35;;;;;;;17.52;100.00;97386.53;5053010;28;20043;-77
2021/08/02 00:31:56;;;;;;;4.68;4.18;;;;;;;17.45;100.00;97391.88;5053155;28;20167;-77
2021/08/02 00:34:21;;;;;;;6.80;4.30;;;;;;;17.34;100.00;97379.72;5053438;28;20112;-76
2021/08/02 00:36:53;;;;;;;5.35;4.78;;;;;;;17.31;100.00;97384.00;5053107;28;20060;-76
2021/08/02 00:39:43;;;;;;;7.53;5.65;;;;;;;17.30;100.00;97393.44;5051562;28;20029;-77
2021/08/02 00:42:21;;;;;;;8.90;5.15;;;;;;;17.25;100.00;97402.00;5053227;28;20119;-77
2021/08/02 00:45:02;;;;;;;6.20;5.40;;;;;;;17.25;100.00;97407.53;5053000;28;20039;-78
2021/08/02 00:47:32;;;;;;;7.55;5.15;;;;;;;17.46;100.00;97404.53;5051757;28;20040;-76
2021/08/02 00:50:05;;;;;;;7.63;4.75;;;;;;;17.70;100.00;97407.19;5052718;28;20453;-77
2021/08/02 00:52:33;;;;;;;5.13;4.57;;;;;;;17.72;100.00;97404.91;5051611;28;20473;-76
2021/08/02 00:55:00;;;;;;;6.43;4.57;;;;;;;17.65;100.00;97422.13;5052744;28;20025;-76
2021/08/02 00:57:30;;;;;;;8.05;5.35;;;;;;;17.69;100.00;97426.94;5050099;28;20045;-79
2021/08/02 01:00:00;;;;;;;5.50;4.70;;;;;;;17.50;100.00;97419.28;5051615;28;20469;-76
2021/08/02 01:02:26;;;;;;;5.43;4.50;;;;;;;17.49;100.00;97428.72;5051243;28;20021;-77
2021/08/02 01:04:54;;;;;;;5.57;3.88;;;;;;;17.49;100.00;97423.19;5050791;28;20377;-78
2021/08/02 01:07:22;;;;;;;7.03;4.60;;;;;;;17.32;100.00;97424.31;5052419;28;20029;-77
2021/08/02 01:09:50;;;;;;;7.05;5.05;;;;;;;17.16;100.00;97437.28;5052283;28;20025;-78
2021/08/02 01:12:15;;;;;;;5.45;4.95;;;;;;;17.10;100.00;97433.94;5050873;28;20091;-78
2021/08/02 01:14:42;;;;;;;7.75;4.55;;;;;;;17.23;100.00;97442.22;5051154;28;20032;-75
2021/08/02 01:17:10;;;;;;;7.97;5.25;;;;;;;17.47;100.00;97436.59;5052652;28;20515;-76
2021/08/02 01:19:36;;;;;;;6.22;5.15;;;;;;;17.30;100.00;97431.34;5052450;28;20025;-76
2021/08/02 01:22:03;;;;;;;6.35;5.07;;;;;;;17.30;100.00;97425.81;5052446;28;20131;-76
2021/08/02 01:24:33;;;;;;;8.25;5.60;;;;;;;17.43;100.00;97449.50;5052499;28;20036;-77
2021/08/02 01:26:58;;;;;;;7.30;5.93;;;;;;;17.63;100.00;97457.63;5052316;28;20541;-75
2021/08/02 01:30:01;;;;;;;7.95;5.25;;;;;;;17.48;100.00;97455.56;5051887;28;20111;-76
2021/08/02 01:32:27;;;;;;;6.20;5.60;;;;;;;17.63;100.00;97454.88;5052085;28;20428;-77
2021/08/02 01:34:54;;;;;;;7.63;6.35;;;;;;;17.54;100.00;97439.56;5051917;28;20049;-78
2021/08/02 01:37:20;;;;;;;6.90;6.20;;;;;;;17.33;100.00;97450.00;5051688;28;20477;-76
2021/08/02 01:39:52;;;;;;;7.80;7.00;;;;;;;17.30;100.00;97450.69;5051847;28;20035;-76
2021/08/02 01:42:18;;;;;;;7.00;6.30;;;;;;;17.37;100.00;97459.19;5051927;28;20107;-78
2021/08/02 01:44:43;;;;;;;7.45;6.53;;;;;;;17.26;100.00;97447.81;5050444;28;20434;-77
2021/08/02 01:47:19;;;;;;;7.53;6.78;;;;;;;17.35;100.00;97450.47;5052035;28;20029;-77
2021/08/02 01:49:53;;;;;;;10.27;6.95;;;;;;;17.38;100.00;97456.09;5050170;28;20040;-78
2021/08/02 01:52:28;;;;;;;9.63;7.13;;;;;;;17.46;100.00;97466.19;5051750;28;20477;-77
2021/08/02 01:54:59;;;;;;;7.82;6.82;;;;;;;17.48;100.00;97463.88;5050072;28;20473;-76
2021/08/02 01:57:36;;;;;;;8.45;7.63;;;;;;;17.54;100.00;97475.50;5051738;28;20788;-78
2021/08/02 02:00:10;;;;;;;8.48;6.93;;;;;;;17.48;100.00;97468.59;5050270;28;20576;-78
2021/08/02 02:02:37;;;;;;;12.38;8.05;;;;;;;17.51;100.00;97473.44;5051550;28;20442;-76
2021/08/02 02:05:08;;;;;;;7.32;5.90;;;;;;;17.67;100.00;97480.66;5051675;28;20051;-78
2021/08/02 02:07:55;;;;;;;7.32;5.70;;;;;;;17.53;100.00;97484.97;5050029;28;20473;-76
2021/08/02 02:10:24;;;;;;;6.47;5.68;;;;;;;17.57;100.00;97470.09;5051655;28;20083;-77
2021/08/02 02:12:51;;;;;;;6.65;5.95;;;;;;;17.51;100.00;97476.22;5051260;28;20025;-76
2021/08/02 02:15:17;;;;;;;14.88;5.90;;;;;;;17.46;100.00;97480.03;5049449;28;20574;-76
2021/08/02 02:17:44;;;;;;;6.88;5.40;;;;;;;17.43;100.00;97475.19;5051225;28;20033;-76
2021/08/02 02:20:11;;;;;;;6.47;5.57;;;;;;;17.55;100.00;97489.00;5049560;28;20021;-76
2021/08/02 02:22:38;;;;;;;10.43;6.22;;;;;;;17.69;100.00;97487.81;5050724;28;20096;-76
2021/08/02 02:25:06;;;;;;;6.55;5.55;;;;;;;17.43;100.00;97497.31;5051630;28;20029;-77
2021/08/02 02:27:34;;;;;;;9.88;5.43;;;;;;;17.56;100.00;97498.13;5050697;28;20087;-77
2021/08/02 02:30:02;;;;;;;5.82;5.22;;;;;;;17.54;100.00;97506.72;5050834;28;20099;-76
2021/08/02 02:32:29;;;;;;;6.45;4.93;;;;;;;17.42;100.00;97495.69;5049624;28;20033;-78
2021/08/02 02:34:55;;;;;;;6.22;5.30;;;;;;;17.43;100.00;97502.03;5051027;28;20036;-77
2021/08/02 02:37:24;;;;;;;7.00;5.10;;;;;;;17.33;100.00;97491.47;5050741;28;20038;-77
2021/08/02 02:39:51;;;;;;;6.88;5.38;;;;;;;17.33;100.00;97508.88;5051039;28;20025;-76
2021/08/02 02:42:18;;;;;;;6.15;5.63;;;;;;;17.11;100.00;97503.84;5050600;28;20025;-77
2021/08/02 02:44:45;;;;;;;7.43;5.30;;;;;;;17.17;100.00;97516.28;5050627;28;20060;-76
2021/08/02 02:47:10;;;;;;;5.93;5.30;;;;;;;17.06;100.00;97513.22;5049490;28;20022;-76
2021/08/02 02:49:38;;;;;;;6.25;5.65;;;;;;;17.00;100.00;97498.03;5049409;28;20032;-76
2021/08/02 02:52:05;;;;;;;6.82;4.90;;;;;;;17.09;100.00;97518.03;5050496;28;20401;-76
2021/08/02 02:54:32;;;;;;;6.57;5.57;;;;;;;17.08;100.00;97508.13;5050561;28;20078;-77
2021/08/02 02:56:58;;;;;;;6.53;5.30;;;;;;;16.97;100.00;97517.25;5050563;28;20052;-77
2021/08/02 02:59:24;;;;;;;7.70;6.07;;;;;;;17.00;100.00;97528.41;5050353;28;20114;-79
2021/08/02 03:01:51;;;;;;;7.25;6.20;;;;;;;16.95;100.00;97525.06;5048913;28;20381;-75
2021/08/02 03:04:20;;;;;;;6.28;5.55;;;;;;;17.14;100.00;97528.03;5049375;28;20040;-75
2021/08/02 03:06:47;;;;;;;7.30;6.05;;;;;;;16.99;100.00;97520.47;5050828;28;20025;-76
2021/08/02 03:09:17;;;;;;;5.30;4.30;;;;;;;17.07;100.00;97509.28;5050144;28;20099;-78
2021/08/02 03:11:43;;;;;;;5.63;4.95;;;;;;;17.21;100.00;97522.72;5050728;28;20493;-76
2021/08/02 03:14:09;;;;;;;5.25;4.75;;;;;;;17.32;100.00;97525.81;5050181;28;20108;-76
2021/08/02 03:16:34;;;;;;;7.70;5.18;;;;;;;17.35;100.00;97533.41;5050416;28;20060;-76
2021/08/02 03:18:59;;;;;;;9.02;4.93;;;;;;;17.19;100.00;97538.06;5048788;28;20032;-75
2021/08/02 03:21:25;;;;;;;6.57;4.85;;;;;;;17.17;100.00;97552.22;5051842;28;20424;-75
2021/08/02 03:24:09;;;;;;;7.82;4.80;;;;;;;17.13;100.00;97554.84;5054291;28;20063;-76
2021/08/02 03:26:41;;;;;;;5.10;4.30;;;;;;;17.32;100.00;97564.53;5054546;28;20035;-76
2021/08/02 03:29:22;;;;;;;5.45;4.22;;;;;;;17.35;100.00;97563.84;5054353;28;20060;-76
2021/08/02 03:32:16;;;;;;;4.90;4.07;;;;;;;17.16;100.00;97563.63;5052719;28;20049;-77
2021/08/02 03:34:43;;;;;;;5.47;3.80;;;;;;;17.21;100.00;97566.16;5048326;28;20051;-77
2021/08/02 03:37:12;;;;;;;5.15;3.83;;;;;;;17.26;100.00;97563.16;5053732;28;20036;-74
2021/08/02 03:39:39;;;;;;;4.03;3.25;;;;;;;17.16;100.00;97566.41;5054300;28;20029;-77
2021/08/02 03:42:07;;;;;;;7.85;4.15;;;;;;;17.12;100.00;97561.56;5052872;28;20075;-76
2021/08/02 03:44:33;;;;;;;4.72;3.85;;;;;;;17.06;100.00;97578.72;5054144;28;20082;-78
2021/08/02 03:47:00;;;;;;;6.90;4.47;;;;;;;17.31;100.00;97576.72;5053872;28;20063;-78
2021/08/02 03:49:25;;;;;;;4.43;3.40;;;;;;;17.14;100.00;97577.78;5052573;28;20076;-75
2021/08/02 03:51:57;;;;;;;8.57;4.68;;;;;;;17.15;100.00;97582.16;5053842;28;20060;-75
2021/08/02 03:54:26;;;;;;;11.65;4.00;;;;;;;17.33;100.00;97585.47;5052721;28;20127;-75
2021/08/02 03:56:52;;;;;;;6.95;3.35;;;;;;;17.40;100.00;97591.22;5054070;28;20028;-75
2021/08/02 03:59:18;;;;;;;4.53;3.63;;;;;;;17.29;100.00;97598.41;5053768;28;20078;-76
2021/08/02 04:01:45;;;;;;;6.75;4.35;;;;;;;17.29;100.00;97601.94;5052274;28;20417;-75
2021/08/02 04:04:12;;;;;;;3.63;2.88;;;;;;;17.24;100.00;97587.56;5053672;28;20033;-76
2021/08/02 04:06:38;;;;;;;2.85;2.42;;;;;;;17.38;100.00;97594.34;5053812;28;20507;-76
2021/08/02 04:09:06;;;;;;;6.32;3.45;;;;;;;17.20;100.00;97603.25;5052120;28;20431;-75
2021/08/02 04:11:32;;;;;;;4.70;2.92;;;;;;;17.16;100.00;97596.81;5053857;28;20021;-77
2021/08/02 04:13:57;;;;;;;3.20;2.90;;;;;;;17.24;100.00;97602.19;5052055;28;20032;-75
2021/08/02 04:16:23;;;;;;;4.95;3.13;;;;;;;17.14;100.00;97597.13;5053736;28;20029;-77
2021/08/02 04:18:49;;;;;;;3.22;2.70;;;;;;;17.12;100.00;97605.78;5051884;28;20087;-75
2021/08/02 04:21:14;;;;;;;3.05;2.55;;;;;;;17.20;100.00;97617.06;5052235;28;20078;-75
2021/08/02 04:23:39;;;;;;;5.20;3.13;;;;;;;17.29;100.00;97615.00;5052267;28;20025;-75
2021/08/02 04:26:05;;;;;;;6.40;3.47;;;;;;;17.47;100.00;97619.09;5052017;28;20125;-75
2021/08/02 04:28:31;;;;;;;4.38;3.60;;;;;;;17.70;100.00;97623.00;5053047;28;20025;-75
2021/08/02 04:30:57;;;;;;;3.63;2.65;;;;;;;17.60;100.00;97623.50;5051582;28;20056;-77
2021/08/02 04:33:23;;;;;;;3.78;3.13;;;;;;;17.70;100.00;97628.53;5053194;28;20033;-79
2021/08/02 04:35:49;;;;;;;3.58;2.67;;;;;;;17.60;100.00;97646.41;5051742;28;20025;-76
2021/08/02 04:38:14;;;;;;;4.80;3.58;;;;;;;17.71;100.00;97646.75;5052988;28;20108;-76
2021/08/02 04:40:40;;;;;;;8.52;3.70;;;;;;;17.39;100.00;97639.38;5052072;28;20037;-76
2021/08/02 04:43:05;;;;;;;4.97;3.63;;;;;;;17.36;100.00;97651.13;5054864;28;20028;-77
2021/08/02 04:45:31;;;;;;;6.47;3.60;;;;;;;17.25;100.00;97652.78;5054215;28;20036;-77
2021/08/02 04:47:56;;;;;;;7.03;3.33;;;;;;;17.24;100.00;97653.91;5053166;28;20496;-77
2021/08/02 04:50:21;;;;;;;6.47;2.88;;;;;;;17.14;100.00;97653.22;5053010;28;20424;-79
2021/08/02 04:52:50;;;;;;;4.50;2.30;;;;;;;16.95;100.00;97658.50;5052979;28;20543;-78
2021/08/02 04:55:17;;;;;;;4.47;2.30;;;;;;;17.23;100.00;97668.91;5053028;28;20029;-79
2021/08/02 04:57:42;;;;;;;5.28;2.13;;;;;;;17.12;100.00;97661.06;5052767;28;20837;-78
2021/08/02 05:00:09;;;;;;;2.08;1.80;;;;;;;17.21;100.00;97665.66;5052655;28;20045;-77
2021/08/02 05:02:35;;;;;;;2.53;2.30;;;;;;;17.02;100.00;97661.50;5051498;28;20489;-77
2021/08/02 05:05:01;;;;;;;7.35;1.83;;;;;;;17.08;100.00;97671.19;5051313;28;20120;-77
2021/08/02 05:07:27;;;;;;;4.18;2.50;;;;;;;17.18;100.00;97678.22;5052470;28;20111;-78
2021/08/02 05:09:52;;;;;;;3.97;2.40;;;;;;;17.03;100.00;97671.44;5052506;28;20039;-79
2021/08/02 05:12:17;;;;;;;6.97;2.45;;;;;;;16.93;100.00;97671.88;5051109;28;20029;-78
2021/08/02 05:14:43;;;;;;;4.40;2.65;;;;;;;16.90;100.00;97671.75;5052502;28;20107;-78
2021/08/02 05:17:09;;;;;;;5.47;2.55;;;;;;;16.91;100.00;97671.41;5051182;28;20021;-76
2021/08/02 05:19:34;;;;;;;4.78;2.53;;;;;;;17.09;100.00;97672.81;5052570;28;20021;-78
2021/08/02 05:22:00;;;;;;;5.40;3.15;;;;;;;17.23;100.00;97674.44;5052553;28;20473;-77
2021/08/02 05:24:25;;;;;;;4.43;2.22;;;;;;;17.42;100.00;97685.69;5052512;28;20037;-77
2021/08/02 05:26:51;;;;;;;5.72;4.35;;;;;;;17.56;100.00;97687.00;5052519;28;20025;-76
2021/08/02 05:29:17;;;;;;;7.85;4.28;;;;;;;17.44;100.00;97694.47;5035366;28;20377;-76
2021/08/02 05:31:43;;;;;;;4.88;2.60;;;;;;;17.70;100.00;97694.94;5052424;28;20048;-76
2021/08/02 05:34:11;;;;;;;6.47;3.08;;;;;;;17.70;100.00;97700.47;5050708;28;20025;-78
2021/08/02 05:36:36;;;;;;;6.18;2.92;;;;;;;17.82;100.00;97697.69;5052334;28;20064;-77
2021/08/02 05:39:02;;;;;;;5.43;2.90;;;;;;;17.75;100.00;97703.00;5050808;28;20083;-75
2021/08/02 05:41:27;;;;;;;4.63;2.05;;;;;;;17.51;100.00;97709.31;5052142;28;20490;-76
2021/08/02 05:43:53;;;;;;;8.00;3.55;;;;;;;17.60;100.00;97721.09;5052098;28;20028;-77
2021/08/02 05:46:18;;;;;;;4.38;3.15;;;;;;;17.54;100.00;97707.84;5052581;28;20035;-77
2021/08/02 05:48:44;;;;;;;3.97;2.55;;;;;;;17.88;100.00;97725.94;5051498;28;20025;-75
2021/08/02 05:51:09;;;;;;;3.25;2.92;;;;;;;17.73;100.00;97727.44;5051906;28;20132;-78
2021/08/02 05:53:35;;;;;;;6.45;2.92;;;;;;;17.74;100.00;97726.28;5051756;28;20021;-77
2021/08/02 05:56:00;;;;;;;4.63;2.45;;;;;;;17.73;100.00;97727.44;5050454;28;20078;-77
2021/08/02 05:58:25;;;;;;;3.65;2.35;;;;;;;17.70;100.00;97730.91;5050123;28;20044;-76
2021/08/02 06:00:51;;;;;;;4.13;2.67;;;;;;;17.82;100.00;97733.69;5051739;28;20095;-77
2021/08/02 06:03:16;;;;;;;3.78;3.30;;;;;;;18.03;100.00;97728.78;5051529;28;20146;-76
2021/08/02 06:05:42;;;;;;;5.45;2.60;;;;;;;18.24;100.00;97736.09;5049915;28;20136;-76
2021/08/02 06:08:07;;;;;;;3.00;2.60;;;;;;;18.39;100.00;97744.47;5051436;28;20021;-77
2021/08/02 06:10:33;;;;;;;5.20;2.90;;;;;;;18.39;100.00;97755.56;5051155;28;20384;-78
2021/08/02 06:12:58;;;;;;;4.93;2.80;;;;;;;18.09;100.00;97748.72;5051202;28;20036;-76
2021/08/02 06:15:23;;;;;;;4.20;2.88;;;;;;;18.09;100.00;97752.31;5051772;28;20024;-76
2021/08/02 06:17:49;;;;;;;6.72;3.20;;;;;;;18.30;100.00;97751.31;5049852;28;20507;-78
2021/08/02 06:20:14;;;;;;;6.70;2.78;;;;;;;18.26;100.00;97758.72;5051296;28;20021;-77
2021/08/02 06:22:40;;;;;;;6.55;3.00;;;;;;;18.09;100.00;97760.63;5050905;28;20122;-76
2021/08/02 06:25:06;;;;;;;3.83;2.85;;;;;;;18.33;100.00;97767.22;5050879;28;20037;-78
2021/08/02 06:27:32;;;;;;;4.10;2.17;;;;;;;18.19;100.00;97773.97;5050352;28;20116;-75
2021/08/02 06:29:58;;;;;;;5.80;2.72;;;;;;;18.15;100.00;97781.38;5051081;28;20119;-76
2021/08/02 06:32:24;;;;;;;3.30;2.20;;;;;;;18.22;100.00;97783.53;5049635;28;20037;-76
2021/08/02 06:34:50;;;;;;;3.03;1.30;;;;;;;17.84;96.81;97783.94;5051007;28;20031;-76
2021/08/02 06:37:16;;;;;;;1.52;1.20;;;;;;;17.95;98.26;97784.28;5050795;28;20123;-75
2021/08/02 06:39:41;;;;;;;1.88;1.25;;;;;;;18.00;98.43;97792.34;5050385;28;20036;-76
2021/08/02 06:42:07;;;;;;;3.60;1.17;;;;;;;17.76;95.53;97797.91;5050695;28;20101;-76
2021/08/02 06:44:32;;;;;;;2.15;1.23;;;;;;;17.74;94.70;97789.13;5050621;28;20037;-76
2021/08/02 06:46:58;;;;;;;1.27;1.17;;;;;;;17.78;93.74;97796.41;5049387;28;20396;-78
2021/08/02 06:49:23;;;;;;;4.55;1.40;;;;;;;17.75;92.63;97797.09;5049416;28;20115;-79
2021/08/02 06:51:48;;;;;;;2.70;1.13;;;;;;;17.92;92.42;97807.09;5050475;28;20120;-78
2021/08/02 06:54:14;;;;;;;1.40;0.82;;;;;;;17.82;91.40;97804.81;5049816;28;20057;-78
2021/08/02 06:56:41;;;;;;;1.67;0.80;;;;;;;17.82;92.60;97799.28;5049929;28;20041;-77
2021/08/02 06:59:06;;;;;;;0.90;0.63;;;;;;;17.90;90.55;97810.22;5050526;28;20032;-77
2021/08/02 07:01:31;;;;;;;1.77;0.63;;;;;;;18.01;91.16;97811.34;5050516;28;20029;-77
2021/08/02 07:03:57;;;;;;;1.90;1.00;;;;;;;18.10;91.67;97811.25;5048897;28;20021;-77
2021/08/02 07:06:22;;;;;;;1.90;1.02;;;;;;;18.04;92.94;97805.13;5049285;28;20033;-77
2021/08/02 07:08:48;;;;;;;3.30;1.63;;;;;;;18.11;95.44;97810.91;5050542;28;20029;-76
2021/08/02 07:11:13;;;;;;;2.15;1.45;;;;;;;18.26;95.55;97811.34;5050213;28;20021;-77
2021/08/02 07:13:39;;;;;;;3.83;2.25;;;;;;;18.46;96.32;97810.38;5049196;28;20040;-78
2021/08/02 07:16:04;;;;;;;4.50;1.77;;;;;;;18.47;95.20;97800.91;5050442;28;20043;-78
2021/08/02 07:18:34;;;;;;;2.20;1.58;;;;;;;18.84;96.52;97816.28;5050087;28;20032;-76
2021/08/02 07:21:00;;;;;;;5.60;2.13;;;;;;;18.83;96.77;97809.13;5050630;28;20104;-76
2021/08/02 07:23:26;;;;;;;4.35;2.33;;;;;;;18.82;98.36;97815.84;5048919;28;20055;-78
2021/08/02 07:25:52;;;;;;;2.10;1.50;;;;;;;18.78;99.57;97814.94;5050269;28;20029;-78
2021/08/02 07:28:17;;;;;;;2.42;1.67;;;;;;;18.91;99.00;97810.94;5048842;28;20083;-78
2021/08/02 07:30:43;;;;;;;3.67;2.00;;;;;;;19.08;96.80;97802.31;5048781;28;20045;-77
2021/08/02 07:33:08;;;;;;;2.60;1.80;;;;;;;19.01;97.20;97820.72;5050137;28;20083;-77
2021/08/02 07:35:33;;;;;;;6.80;2.30;;;;;;;18.92;97.01;97807.00;5050685;28;20025;-79
2021/08/02 07:37:59;;;;;;;2.40;1.95;;;;;;;18.87;96.73;97812.81;5049922;28;20112;-77
2021/08/02 07:40:25;;;;;;;5.68;2.08;;;;;;;19.11;95.79;97823.78;5050043;28;20459;-78
2021/08/02 07:42:50;;;;;;;3.47;1.73;;;;;;;19.06;95.78;97812.97;5049046;28;20036;-78
2021/08/02 07:45:17;;;;;;;2.20;1.75;;;;;;;19.08;95.28;97815.34;5050323;28;20037;-78
2021/08/02 07:47:42;;;;;;;6.05;2.53;;;;;;;19.18;94.07;97814.84;5050469;28;20124;-77
2021/08/02 07:50:09;;;;;;;5.32;1.85;;;;;;;19.22;94.65;97819.34;5050005;28;20137;-75
2021/08/02 07:52:34;;;;;;;7.90;2.03;;;;;;;19.22;94.93;97813.81;5049875;28;20033;-76
2021/08/02 07:55:00;;;;;;;9.27;1.95;;;;;;;19.02;95.02;97827.88;5048668;28;20029;-75
2021/08/02 07:57:26;;;;;;;5.32;2.20;;;;;;;18.95;93.83;97824.91;5048977;28;20049;-75
2021/08/02 07:59:52;;;;;;;3.22;2.33;;;;;;;19.08;93.41;97827.25;5049777;28;20021;-76
2021/08/02 08:02:17;;;;;;;4.85;1.95;;;;;;;18.96;94.23;97830.09;5049708;28;20025;-76
2021/08/02 08:04:42;;;;;;;4.90;1.80;;;;;;;19.05;93.79;97827.16;5048461;28;20473;-76
2021/08/02 08:07:08;;;;;;;4.38;2.03;;;;;;;19.30;90.33;97822.28;5051072;28;20059;-76
2021/08/02 08:09:34;;;;;;;3.53;3.20;;;;;;;19.59;87.88;97838.56;5053616;28;20032;-76
2021/08/02 08:12:00;;;;;;;2.38;0.98;;;;;;;19.88;87.02;97838.13;5053895;28;20021;-75
2021/08/02 08:14:25;;;;;;;0.80;0.80;;;;;;;19.98;85.51;97848.72;5053653;28;20033;-75
2021/08/02 08:16:51;;;;;;;1.27;0.98;;;;;;;19.83;84.17;97852.28;5053505;28;20033;-75
2021/08/02 08:19:16;;;;;;;3.67;1.05;;;;;;;19.83;85.77;97852.28;5052365;28;20501;-76
2021/08/02 08:21:42;;;;;;;2.85;1.55;;;;;;;20.09;84.64;97866.44;5052005;28;20025;-76
2021/08/02 08:24:07;;;;;;;2.40;1.55;;;;;;;19.87;85.39;97861.50;5051576;28;20031;-78
2021/08/02 08:26:37;;;;;;;2.30;0.98;;;;;;;19.62;85.22;97858.09;5053381;28;20048;-76
2021/08/02 08:29:04;;;;;;;7.03;1.50;;;;;;;19.50;85.90;97841.53;5053471;28;20069;-77
2021/08/02 08:31:29;;;;;;;5.35;1.05;;;;;;;19.92;85.00;97839.03;5053734;28;20123;-76
2021/08/02 08:33:55;;;;;;;1.98;1.15;;;;;;;20.28;81.66;97852.63;5051858;28;20556;-77
2021/08/02 08:36:21;;;;;;;1.48;0.88;;;;;;;20.96;78.30;97866.06;5053433;28;20043;-76
2021/08/02 08:38:47;;;;;;;1.02;0.90;;;;;;;21.21;76.65;97863.81;5053016;28;20115;-78
2021/08/02 08:41:13;;;;;;;3.35;1.15;;;;;;;21.12;75.87;97868.78;5051731;28;20473;-76
2021/08/02 08:43:40;;;;;;;0.55;0.55;;;;;;;21.13;77.54;97860.09;5053173;28;20028;-76
2021/08/02 08:46:06;;;;;;;2.80;1.00;;;;;;;21.47;75.89;97863.13;5051723;28;20468;-77
2021/08/02 08:48:31;;;;;;;0.98;0.93;;;;;;;22.30;72.42;97863.03;5052784;28;20033;-77
2021/08/02 08:51:03;;;;;;;1.35;1.05;;;;;;;22.47;69.17;97861.69;5052613;28;20119;-76
2021/08/02 08:53:28;;;;;;;2.40;1.20;;;;;;;22.69;66.97;97868.41;5051484;28;20052;-76
2021/08/02 08:55:54;;;;;;;1.15;0.98;;;;;;;23.58;62.90;97864.78;5053236;28;20473;-76
2021/08/02 08:58:19;;;;;;;1.95;0.85;;;;;;;23.45;63.60;97862.25;5053102;28;20017;-77
2021/08/02 09:00:45;;;;;;;0.88;0.63;;;;;;;22.89;65.46;97872.69;5053491;28;20025;-75
2021/08/02 09:03:13;;;;;;;4.18;0.90;;;;;;;22.83;65.69;97869.44;5053216;28;20032;-76
2021/08/02 09:05:39;;;;;;;1.83;1.00;;;;;;;22.06;67.26;97863.44;5052527;28;20056;-76
2021/08/02 09:08:06;;;;;;;4.50;0.80;;;;;;;22.36;67.02;97861.56;5052694;28;20079;-77
2021/08/02 09:10:32;;;;;;;1.00;0.52;;;;;;;21.98;68.00;97861.72;5052531;28;20036;-77
2021/08/02 09:13:01;;;;;;;0.80;0.80;;;;;;;22.15;67.57;97852.81;5051350;28;20120;-78
2021/08/02 09:15:32;;;;;;;1.00;0.90;;;;;;;22.56;66.57;97869.78;5052881;28;20025;-75
2021/08/02 09:17:58;;;;;;;1.60;0.80;;;;;;;21.95;67.76;97861.66;5051575;28;20064;-77
2021/08/02 09:20:25;;;;;;;1.67;0.70;;;;;;;21.99;68.40;97871.66;5052155;28;20111;-76
2021/08/02 09:22:51;;;;;;;1.05;0.70;;;;;;;22.32;67.21;97871.84;5052935;28;20389;-77
2021/08/02 09:25:22;;;;;;;2.10;0.77;;;;;;;22.05;67.73;97877.75;5052522;28;20029;-77
2021/08/02 09:27:49;;;;;;;3.70;1.23;;;;;;;22.04;67.02;97867.78;5052413;28;20136;-78
2021/08/02 09:30:26;;;;;;;0.80;0.50;;;;;;;21.77;67.52;97864.09;5051824;28;20029;-75
2021/08/02 09:32:55;;;;;;;1.50;0.93;;;;;;;22.22;66.52;97866.88;5051452;28;20060;-77
2021/08/02 09:35:41;;;;;;;1.98;1.13;;;;;;;21.21;68.27;97856.28;5052192;28;20485;-77
2021/08/02 09:38:10;;;;;;;3.00;0.65;;;;;;;21.64;68.60;97851.53;5052140;28;20431;-76
2021/08/02 09:40:49;;;;;;;3.25;0.95;;;;;;;21.11;68.96;97862.41;5052124;28;20423;-77
2021/08/02 09:43:20;;;;;;;3.00;1.15;;;;;;;20.96;68.94;97866.06;5051961;28;20029;-77
2021/08/02 09:46:01;;;;;;;0.70;0.65;;;;;;;20.99;69.16;97862.53;5052111;28;20035;-76
2021/08/02 09:48:59;;;;;;;0.50;0.50;;;;;;;20.80;69.24;97857.78;5051966;28;20029;-79
2021/08/02 09:51:25;;;;;;;1.10;0.90;;;;;;;20.78;69.93;97860.13;5050435;28;20443;-74
2021/08/02 09:53:53;;;;;;;1.48;0.82;;;;;;;20.58;69.48;97860.47;5050350;28;20459;-76
2021/08/02 09:56:20;;;;;;;0.50;0.50;;;;;;;20.39;67.21;97857.66;5051822;28;20074;-76
2021/08/02 09:58:47;;;;;;;0.40;0.40;;;;;;;20.16;64.86;97849.13;5052156;28;20044;-77
2021/08/02 10:01:17;;;;;;;2.58;1.10;;;;;;;20.20;64.42;97861.91;5051803;28;20449;-76
2021/08/02 10:03:43;;;;;;;0.50;0.32;;;;;;;20.36;64.04;97869.50;5051620;28;20476;-76
2021/08/02 10:06:14;;;;;;;1.00;0.73;;;;;;;20.37;64.35;97862.75;5051536;28;20104;-75
2021/08/02 10:08:40;;;;;;;0.57;0.50;;;;;;;20.46;64.86;97849.44;5051225;28;20025;-76
2021/08/02 10:11:06;;;;;;;0.68;0.57;;;;;;;20.78;63.83;97843.44;5051254;28;20439;-76
2021/08/02 10:13:37;;;;;;;0.70;0.50;;;;;;;21.06;62.45;97856.31;5051568;28;20032;-76
2021/08/02 10:16:09;;;;;;;1.10;1.00;;;;;;;21.09;60.25;97848.09;5051628;28;20021;-78
2021/08/02 10:18:35;;;;;;;0.82;0.20;;;;;;;21.45;59.78;97848.78;5051419;28;20373;-75
2021/08/02 10:21:10;;;;;;;1.17;0.60;;;;;;;21.70;60.81;97850.03;5050108;28;20036;-78
2021/08/02 10:23:38;;;;;;;0.60;0.25;;;;;;;22.36;58.46;97855.97;5050130;28;20031;-77
2021/08/02 10:26:16;;;;;;;0.68;0.60;;;;;;;22.25;58.09;97856.97;5051270;28;20032;-79
2021/08/02 10:28:51;;;;;;;1.48;0.57;;;;;;;22.02;58.61;97851.41;5051240;28;20029;-79
2021/08/02 10:31:17;;;;;;;0.40;0.40;;;;;;;22.50;58.54;97854.56;5049522;28;20073;-77
2021/08/02 10:33:42;;;;;;;0.63;0.47;;;;;;;22.69;57.96;97848.88;5051146;28;20127;-77
2021/08/02 10:36:15;;;;;;;0.40;0.38;;;;;;;23.27;58.12;97847.28;5050943;28;20024;-77
2021/08/02 10:38:46;;;;;;;1.73;0.73;;;;;;;24.71;52.86;97848.97;5051245;28;20027;-76
2021/08/02 10:41:26;;;;;;;0.60;0.60;;;;;;;23.54;54.80;97845.19;5051416;28;20083;-77
2021/08/02 10:43:52;;;;;;;1.67;0.98;;;;;;;22.81;58.04;97851.44;5051366;28;20037;-77
2021/08/02 10:46:25;;;;;;;0.88;0.77;;;;;;;22.69;58.19;97848.88;5052652;28;20051;-79
2021/08/02 10:49:06;;;;;;;0.43;0.40;;;;;;;21.86;60.28;97842.38;5050730;28;20052;-77
2021/08/02 10:51:32;;;;;;;9.30;1.48;;;;;;;21.32;62.49;97839.78;5050938;28;20106;-76
2021/08/02 10:54:03;;;;;;;2.15;0.70;;;;;;;21.51;62.58;97847.31;5050807;28;20060;-77
2021/08/02 10:56:30;;;;;;;1.58;0.60;;;;;;;21.72;62.22;97850.47;5049154;28;20490;-79
2021/08/02 10:58:57;;;;;;;0.35;0.28;;;;;;;21.81;61.95;97845.47;5050813;28;20102;-77
2021/08/02 11:01:26;;;;;;;0.68;0.68;;;;;;;21.88;59.40;97846.44;5050909;28;20024;-78
2021/08/02 11:03:52;;;;;;;2.38;0.30;;;;;;;21.55;59.56;97842.63;5049329;28;20032;-78
2021/08/02 11:06:17;;;;;;;1.73;0.43;;;;;;;21.68;60.92;97841.25;5050988;28;20029;-78
2021/08/02 11:08:50;;;;;;;1.33;0.52;;;;;;;22.00;60.33;97859.34;5051714;28;20025;-77
2021/08/02 11:11:22;;;;;;;0.98;0.70;;;;;;;21.99;59.02;97846.59;5049279;28;20021;-75
2021/08/02 11:13:47;;;;;;;0.47;0.47;;;;;;;22.41;58.84;97850.06;5051113;28;20028;-76
2021/08/02 11:16:13;;;;;;;0.65;0.50;;;;;;;22.77;56.62;97847.81;5051211;28;20391;-77
2021/08/02 11:18:43;;;;;;;4.68;0.40;;;;;;;22.83;56.52;97849.09;5049298;28;20037;-77
2021/08/02 11:21:23;;;;;;;0.70;0.50;;;;;;;22.87;56.09;97853.53;5049171;28;20037;-77
2021/08/02 11:23:48;;;;;;;0.85;0.55;;;;;;;23.00;56.10;97848.50;5050557;28;20029;-76
2021/08/02 11:26:14;;;;;;;0.57;0.57;;;;;;;22.70;56.13;97842.13;5050511;28;20082;-77
2021/08/02 11:28:44;;;;;;;0.40;0.38;;;;;;;22.86;56.19;97845.56;5050597;28;20029;-77
2021/08/02 11:31:11;;;;;;;0.75;0.40;;;;;;;22.43;57.16;97849.69;5050456;28;20507;-76
2021/08/02 11:33:41;;;;;;;0.57;0.35;;;;;;;22.93;55.22;97845.63;5049186;28;20033;-76